Dades meteomassalio
Diari Summary for Gener 10, 2017 Units:  English    Metric   Both
« Previous Day
Next Day »
Diari Semanal Mensual Anual Personalitzat
  Maxima: Minima: Mijana:
Temperatura: TemperatureC °F 5.3 °F 9.2 °F
Rosada: DewpointC °F 2.0 °F 4.4 °F
Humitat: Humidity % 65 % 72 %
Velocitat del vent: WindSpeedKMH mph 0.0 mph 32.5 mph
Racha vent: WindSpeedGustKMH mph - -
Vent:- - SW
Pressio: PressurehPa in 1013.1 in -
Pluja: 0.0 in    
Historical Graphs
 
 
Tabular Data for Gener 10, 2017
Time Temperature Dew Point Pressure Wind Wind Speed Wind Gust Humidity Rainfall Rate (Hourly) solar Conditions
TemperatureC °F DewpointC °F PressurehPa in Calm     Humidity % HourlyPrecipMM in SolarRadiationWatts/m^2 W/m2 Conditions
00:03 5.3 °F 2.0 °F 1023.6 in ENE 3.7 mph 3.7 mph 79 % 0.0 in 0.0 W/m2 CLR
00:08 5.9 °F 2.6 °F 1023.2 in ENE 5.6 mph 5.6 mph 79 % 0.0 in 0.0 W/m2 CLR
00:13 6.3 °F 2.4 °F 1023.2 in ENE 4.8 mph 4.8 mph 76 % 0.0 in 0.0 W/m2 CLR
00:18 6.6 °F 2.6 °F 1023.2 in ENE 5.6 mph 5.6 mph 76 % 0.0 in 0.0 W/m2 CLR
00:23 6.7 °F 2.6 °F 1023.2 in ENE 3.7 mph   75 % 0.0 in 0.0 W/m2 CLR
00:28 6.7 °F 2.3 °F 1023.2 in ENE 1.9 mph   74 % 0.0 in 0.0 W/m2 CLR
00:33 6.4 °F 2.3 °F 1023.2 in ENE 5.6 mph 5.6 mph 75 % 0.0 in 0.0 W/m2 CLR
00:38 6.3 °F 2.2 °F 1023.2 in ENE 9.3 mph 9.3 mph 75 % 0.0 in 0.0 W/m2 CLR
00:43 6.3 °F 2.3 °F 1023.2 in ENE 5.6 mph 5.6 mph 76 % 0.0 in 0.0 W/m2 CLR
00:48 6.3 °F 2.3 °F 1023.2 in Calm     76 % 0.0 in 0.0 W/m2 CLR
00:58 6.1 °F 2.2 °F 1023.2 in Calm     76 % 0.0 in 0.0 W/m2 CLR
01:03 6.1 °F 2.2 °F 1023.2 in Calm     76 % 0.0 in 0.0 W/m2 CLR
01:08 6.2 °F 2.3 °F 1023.2 in Calm     76 % 0.0 in 0.0 W/m2 CLR
01:13 6.3 °F 2.3 °F 1022.9 in Calm     76 % 0.0 in 0.0 W/m2 CLR
01:18 6.3 °F 2.4 °F 1022.9 in Calm     76 % 0.0 in 0.0 W/m2 CLR
01:23 6.4 °F 2.4 °F 1022.9 in Calm     76 % 0.0 in 0.0 W/m2 CLR
01:28 6.5 °F 2.6 °F 1022.6 in ENE 5.6 mph 5.6 mph 76 % 0.0 in 0.0 W/m2 CLR
01:33 6.6 °F 2.4 °F 1022.6 in Calm     75 % 0.0 in 0.0 W/m2 CLR
01:38 6.4 °F 2.5 °F 1022.6 in Calm     76 % 0.0 in 0.0 W/m2 CLR
01:43 6.4 °F 2.5 °F 1022.2 in Calm     76 % 0.0 in 0.0 W/m2 CLR
01:48 6.4 °F 2.5 °F 1022.2 in Calm     76 % 0.0 in 0.0 W/m2 CLR
01:53 6.5 °F 2.6 °F 1022.2 in Calm     76 % 0.0 in 0.0 W/m2 CLR
01:58 6.5 °F 2.6 °F 1022.2 in ENE 3.7 mph 3.7 mph 76 % 0.0 in 0.0 W/m2 CLR
02:03 6.7 °F 2.6 °F 1021.9 in Calm   0.6 mph 75 % 0.0 in 0.0 W/m2 CLR
02:09 6.8 °F 2.7 °F 1021.9 in ENE 3.7 mph 3.7 mph 75 % 0.0 in 0.0 W/m2 CLR
02:14 6.9 °F 2.8 °F 1021.9 in ENE 5.6 mph 5.6 mph 75 % 0.0 in 0.0 W/m2 CLR
02:19 7.0 °F 2.7 °F 1021.6 in ENE 1.9 mph 1.9 mph 74 % 0.0 in 0.0 W/m2 CLR
02:24 7.1 °F 2.7 °F 1021.6 in Calm     74 % 0.0 in 0.0 W/m2 CLR
02:29 7.1 °F 2.7 °F 1021.2 in Calm     74 % 0.0 in 0.0 W/m2 CLR
02:34 7.0 °F 2.7 °F 1021.2 in ENE 4.8 mph 4.8 mph 74 % 0.0 in 0.0 W/m2 CLR
02:39 7.0 °F 2.7 °F 1021.2 in Calm     74 % 0.0 in 0.0 W/m2 CLR
02:44 7.0 °F 2.7 °F 1020.9 in Calm     74 % 0.0 in 0.0 W/m2 CLR
02:49 7.0 °F 2.7 °F 1020.9 in Calm     74 % 0.0 in 0.0 W/m2 CLR
02:54 6.9 °F 2.6 °F 1021.2 in Calm     74 % 0.0 in 0.0 W/m2 CLR
02:59 7.0 °F 2.7 °F 1021.2 in Calm     74 % 0.0 in 0.0 W/m2 CLR
03:04 7.1 °F 2.6 °F 1021.2 in ENE 11.3 mph 11.3 mph 73 % 0.0 in 0.0 W/m2 CLR
03:09 7.4 °F 2.7 °F 1021.2 in ENE 7.4 mph 7.4 mph 72 % 0.0 in 0.0 W/m2 CLR
03:14 7.6 °F 2.7 °F 1021.2 in ENE 13.0 mph 13.0 mph 71 % 0.0 in 0.0 W/m2 CLR
03:19 7.8 °F 2.7 °F 1021.2 in ENE 11.1 mph 11.1 mph 70 % 0.0 in 0.0 W/m2 CLR
03:24 8.1 °F 2.8 °F 1020.9 in ENE 18.5 mph 18.5 mph 69 % 0.0 in 0.0 W/m2 CLR
03:29 8.2 °F 2.9 °F 1020.9 in ENE 18.5 mph 18.5 mph 69 % 0.0 in 0.0 W/m2 CLR
03:34 8.3 °F 2.9 °F 1020.9 in ENE 20.4 mph 20.4 mph 69 % 0.0 in 0.0 W/m2 CLR
03:44 8.4 °F 2.6 °F 1020.5 in ENE 22.2 mph 22.2 mph 67 % 0.0 in 0.0 W/m2 CLR
03:49 8.4 °F 2.6 °F 1020.5 in ENE 29.6 mph 29.6 mph 67 % 0.0 in 0.0 W/m2 CLR
03:54 8.3 °F 2.6 °F 1020.5 in ENE 18.5 mph 18.5 mph 67 % 0.0 in 0.0 W/m2 CLR
03:59 8.3 °F 2.5 °F 1020.2 in ENE 25.9 mph 25.9 mph 67 % 0.0 in 0.0 W/m2 CLR
04:04 8.3 °F 2.6 °F 1020.2 in ENE 24.1 mph 24.1 mph 67 % 0.0 in 0.0 W/m2 CLR
04:09 8.3 °F 2.6 °F 1020.2 in ENE 20.4 mph 20.4 mph 67 % 0.0 in 0.0 W/m2 CLR
04:14 8.2 °F 2.4 °F 1020.2 in ENE 27.8 mph 27.8 mph 67 % 0.0 in 0.0 W/m2 CLR
04:19 8.2 °F 2.6 °F 1020.2 in ENE 19.3 mph 19.3 mph 68 % 0.0 in 0.0 W/m2 CLR
04:24 8.2 °F 2.9 °F 1019.9 in ENE 25.9 mph 25.9 mph 69 % 0.0 in 0.0 W/m2 CLR
04:29 8.3 °F 3.0 °F 1019.9 in ENE 20.4 mph 20.4 mph 69 % 0.0 in 0.0 W/m2 CLR
04:34 8.4 °F 3.0 °F 1019.9 in ENE 25.9 mph 25.9 mph 69 % 0.0 in 0.0 W/m2 CLR
04:39 8.4 °F 3.2 °F 1019.9 in ENE 22.2 mph 22.2 mph 70 % 0.0 in 0.0 W/m2 CLR
04:44 8.3 °F 3.2 °F 1019.5 in ENE 20.4 mph 20.4 mph 70 % 0.0 in 0.0 W/m2 CLR
04:49 8.4 °F 3.2 °F 1019.5 in ENE 18.5 mph 18.5 mph 70 % 0.0 in 0.0 W/m2 CLR
04:54 8.4 °F 3.0 °F 1019.5 in ENE 22.2 mph 22.2 mph 69 % 0.0 in 0.0 W/m2 CLR
04:59 8.5 °F 3.1 °F 1019.2 in ENE 22.2 mph 22.2 mph 69 % 0.0 in 0.0 W/m2 CLR
05:09 8.6 °F 3.2 °F 1019.2 in ENE 20.9 mph 20.9 mph 69 % 0.0 in 0.0 W/m2 CLR
05:19 8.7 °F 3.3 °F 1018.8 in ENE 25.9 mph 25.9 mph 69 % 0.0 in 0.0 W/m2 CLR
05:24 8.8 °F 3.4 °F 1019.2 in ENE 18.5 mph 18.5 mph 69 % 0.0 in 0.0 W/m2 CLR
05:29 8.8 °F 3.6 °F 1019.2 in ENE 25.9 mph 25.9 mph 70 % 0.0 in 0.0 W/m2 CLR
05:34 8.8 °F 3.6 °F 1019.2 in ENE 25.9 mph 25.9 mph 70 % 0.0 in 0.0 W/m2 CLR
05:39 8.8 °F 3.7 °F 1018.8 in ENE 25.9 mph 25.9 mph 70 % 0.0 in 0.0 W/m2 CLR
05:44 9.1 °F 3.7 °F 1018.8 in ENE 27.8 mph 27.8 mph 69 % 0.0 in 0.0 W/m2 CLR
05:49 9.2 °F 3.6 °F 1018.8 in ENE 25.9 mph 25.9 mph 68 % 0.0 in 0.0 W/m2 CLR
05:54 9.2 °F 3.6 °F 1018.5 in ENE 25.9 mph 25.9 mph 68 % 0.0 in 0.0 W/m2 CLR
05:59 9.2 °F 3.4 °F 1018.5 in ENE 31.5 mph 31.5 mph 67 % 0.0 in 0.0 W/m2 CLR
06:04 9.2 °F 3.4 °F 1018.5 in ENE 31.5 mph 31.5 mph 67 % 0.0 in 0.0 W/m2 CLR
06:09 9.3 °F 3.2 °F 1018.2 in ENE 33.3 mph 33.3 mph 66 % 0.0 in 0.0 W/m2 CLR
06:14 9.3 °F 3.3 °F 1018.2 in ENE 24.1 mph 24.1 mph 66 % 0.0 in 0.0 W/m2 CLR
06:19 9.4 °F 3.3 °F 1018.2 in ENE 31.5 mph 31.5 mph 66 % 0.0 in 0.0 W/m2 CLR
06:20 9.4 °F 3.3 °F 1018.2 in ENE 31.5 mph 31.5 mph 66 % 0.0 in 0.0 W/m2 CLR
06:25 9.3 °F 3.3 °F 1018.2 in ENE 31.5 mph 31.5 mph 66 % 0.0 in 0.0 W/m2 CLR
06:30 9.3 °F 3.2 °F 1018.5 in ENE 27.8 mph 27.8 mph 66 % 0.0 in 0.0 W/m2 CLR
06:35 9.3 °F 3.2 °F 1018.5 in ENE 29.6 mph 29.6 mph 66 % 0.0 in 0.0 W/m2 CLR
06:40 9.3 °F 3.4 °F 1018.2 in ENE 31.5 mph 31.5 mph 67 % 0.0 in 0.0 W/m2 CLR
06:45 9.3 °F 3.5 °F 1018.2 in ENE 29.6 mph 29.6 mph 67 % 0.0 in 0.0 W/m2 CLR
06:50 9.3 °F 3.7 °F 1018.2 in ENE 29.6 mph 29.6 mph 68 % 0.0 in 0.0 W/m2 CLR
06:55 9.2 °F 3.8 °F 1018.2 in ENE 33.8 mph 33.8 mph 69 % 0.0 in 0.0 W/m2 CLR
07:00 9.0 °F 3.6 °F 1017.8 in ENE 33.3 mph 33.3 mph 69 % 0.0 in 0.0 W/m2 CLR
07:05 8.9 °F 3.8 °F 1017.8 in ENE 35.2 mph 35.2 mph 70 % 0.0 in 0.0 W/m2 CLR
07:10 8.9 °F 3.8 °F 1017.8 in ENE 40.2 mph 40.2 mph 70 % 0.0 in 0.0 W/m2 CLR
07:20 9.1 °F 3.7 °F 1017.8 in ENE 37.0 mph 37.0 mph 69 % 0.0 in 0.0 W/m2 CLR
07:25 9.1 °F 3.7 °F 1017.8 in ENE 31.5 mph 31.5 mph 69 % 0.0 in 0.0 W/m2 CLR
07:30 9.1 °F 3.7 °F 1017.8 in ENE 33.3 mph 33.3 mph 69 % 0.0 in 0.0 W/m2 CLR
07:35 9.2 °F 3.8 °F 1017.8 in ENE 40.7 mph 40.7 mph 69 % 0.0 in 0.0 W/m2 CLR
07:40 9.2 °F 3.8 °F 1017.8 in ENE 27.8 mph 27.8 mph 69 % 0.0 in 0.0 W/m2 CLR
07:45 9.2 °F 3.8 °F 1017.8 in ENE 33.3 mph 33.3 mph 69 % 0.0 in 0.0 W/m2 CLR
07:50 9.1 °F 3.7 °F 1017.8 in ENE 31.5 mph 31.5 mph 69 % 0.0 in 0.0 W/m2 CLR
07:55 9.1 °F 3.7 °F 1017.8 in ENE 27.8 mph 27.8 mph 69 % 0.0 in 0.0 W/m2 CLR
08:00 9.1 °F 3.7 °F 1017.5 in ENE 31.5 mph 31.5 mph 69 % 0.0 in 0.0 W/m2 CLR
08:05 8.9 °F 3.8 °F 1017.5 in ENE 24.1 mph 25.4 mph 70 % 0.0 in 0.0 W/m2 CLR
08:10 8.9 °F 3.7 °F 1017.5 in ENE 24.1 mph 24.1 mph 70 % 0.0 in 0.0 W/m2 CLR
08:15 8.8 °F 3.7 °F 1017.5 in ENE 31.5 mph 31.5 mph 70 % 0.0 in 0.0 W/m2 CLR
08:20 8.8 °F 3.7 °F 1017.5 in ENE 24.1 mph 24.1 mph 70 % 0.0 in 0.0 W/m2 CLR
08:25 8.9 °F 3.7 °F 1017.5 in ENE 27.8 mph 27.8 mph 70 % 0.0 in 0.0 W/m2 OVC
08:30 8.8 °F 3.6 °F 1017.5 in NE 19.3 mph 19.3 mph 70 % 0.0 in 0.0 W/m2 OVC
08:35 8.9 °F 3.5 °F 1017.5 in ENE 27.8 mph 27.8 mph 69 % 0.0 in 5.0 W/m2 BKN
08:40 9.0 °F 3.6 °F 1017.5 in ENE 31.5 mph 31.5 mph 69 % 0.0 in 7.0 W/m2 BKN
08:45 8.9 °F 3.6 °F 1017.5 in ENE 29.6 mph 29.6 mph 69 % 0.0 in 14.0 W/m2 BKN
08:50 8.9 °F 3.5 °F 1017.5 in ENE 25.9 mph 25.9 mph 69 % 0.0 in 21.0 W/m2 BKN
08:55 8.8 °F 3.6 °F 1017.5 in ENE 29.6 mph 29.6 mph 70 % 0.0 in 26.0 W/m2 BKN
09:00 8.8 °F 3.7 °F 1017.5 in ENE 25.9 mph 25.9 mph 70 % 0.0 in 30.0 W/m2 BKN
09:05 8.8 °F 3.8 °F 1017.5 in ENE 29.6 mph 29.6 mph 71 % 0.0 in 32.0 W/m2 BKN
09:10 8.8 °F 3.8 °F 1017.5 in ENE 35.2 mph 35.2 mph 71 % 0.0 in 47.0 W/m2 BKN
09:15 8.9 °F 4.1 °F 1017.2 in ENE 31.5 mph 31.5 mph 72 % 0.0 in 74.0 W/m2 BKN
09:20 9.0 °F 4.2 °F 1017.2 in ENE 37.0 mph 37.0 mph 72 % 0.0 in 90.0 W/m2 BKN
09:25 9.1 °F 4.3 °F 1017.2 in ENE 27.8 mph 27.8 mph 72 % 0.0 in 139.0 W/m2 BKN
09:30 9.3 °F 4.5 °F 1017.2 in ENE 37.0 mph 37.0 mph 72 % 0.0 in 171.0 W/m2 SCT
09:35 9.3 °F 4.6 °F 1017.2 in ENE 22.2 mph 22.2 mph 72 % 0.0 in 160.0 W/m2 SCT
09:40 9.4 °F 4.6 °F 1017.2 in ENE 31.5 mph 31.5 mph 72 % 0.0 in 193.0 W/m2 SCT
09:45 9.5 °F 4.9 °F 1017.2 in ENE 25.7 mph 25.7 mph 73 % 0.0 in 169.0 W/m2 SCT
09:50 9.4 °F 4.8 °F 1017.5 in ENE 37.0 mph 37.0 mph 73 % 0.0 in 151.0 W/m2 SCT
09:55 9.4 °F 4.8 °F 1017.2 in ENE 40.7 mph 40.7 mph 73 % 0.0 in 84.0 W/m2 BKN
10:00 9.3 °F 4.7 °F 1017.2 in NE 27.8 mph 27.8 mph 73 % 0.0 in 53.0 W/m2 BKN
10:05 9.2 °F 4.6 °F 1017.2 in NNW 38.9 mph 38.9 mph 73 % 0.0 in 58.0 W/m2 BKN
10:10 9.1 °F 4.7 °F 1017.2 in NW 25.9 mph 25.9 mph 74 % 0.0 in 70.0 W/m2 BKN
10:15 9.1 °F 4.7 °F 1016.8 in NW 33.8 mph 33.8 mph 74 % 0.0 in 72.0 W/m2 BKN
10:20 9.2 °F 4.8 °F 1016.8 in NW 37.0 mph 37.0 mph 74 % 0.0 in 81.0 W/m2 BKN
10:25 9.2 °F 4.8 °F 1016.8 in NW 44.4 mph 44.4 mph 74 % 0.0 in 81.0 W/m2 BKN
10:30 9.1 °F 5.1 °F 1017.2 in NW 35.2 mph 35.2 mph 76 % 0.0 in 98.0 W/m2 BKN
10:35 8.9 °F 5.1 °F 1017.2 in NW 42.6 mph 42.6 mph 77 % 0.0 in 104.0 W/m2 BKN
10:40 8.9 °F 5.1 °F 1017.2 in NW 33.8 mph 33.8 mph 77 % 0.0 in 90.0 W/m2 BKN
10:45 8.9 °F 5.3 °F 1017.2 in NW 25.9 mph 25.9 mph 78 % 0.0 in 100.0 W/m2 BKN
10:50 9.0 °F 5.2 °F 1017.2 in NW 31.5 mph 31.5 mph 77 % 0.0 in 84.0 W/m2 BKN
10:55 9.0 °F 5.2 °F 1017.5 in NW 24.1 mph 24.1 mph 77 % 0.0 in 105.0 W/m2 BKN
11:00 9.1 °F 5.2 °F 1017.5 in NW 14.8 mph 14.8 mph 77 % 0.0 in 72.0 W/m2 BKN
11:05 9.1 °F 5.1 °F 1017.5 in NW 25.9 mph 25.9 mph 76 % 0.0 in 77.0 W/m2 BKN
11:10 9.2 °F 5.2 °F 1017.2 in NW 31.5 mph 31.5 mph 76 % 0.0 in 113.0 W/m2 BKN
11:15 9.3 °F 5.3 °F 1017.2 in NW 27.8 mph 27.8 mph 76 % 0.0 in 113.0 W/m2 BKN
11:20 9.4 °F 5.2 °F 1016.8 in NW 27.8 mph 27.8 mph 75 % 0.0 in 132.0 W/m2 BKN
11:25 9.4 °F 5.2 °F 1016.5 in NW 35.2 mph 35.2 mph 75 % 0.0 in 163.0 W/m2 BKN
11:30 9.6 °F 5.2 °F 1016.5 in NW 38.9 mph 38.9 mph 74 % 0.0 in 195.0 W/m2 BKN
11:35 9.8 °F 5.4 °F 1016.1 in NW 29.6 mph 29.6 mph 74 % 0.0 in 220.0 W/m2 BKN
11:40 9.8 °F 5.2 °F 1016.1 in NW 33.3 mph 33.3 mph 73 % 0.0 in 218.0 W/m2 BKN
11:45 9.9 °F 5.3 °F 1016.1 in NW 27.8 mph 27.8 mph 73 % 0.0 in 227.0 W/m2 BKN
11:50 10.1 °F 5.4 °F 1015.8 in NW 25.9 mph 25.9 mph 73 % 0.0 in 169.0 W/m2 BKN
11:55 10.1 °F 5.5 °F 1015.8 in NW 37.0 mph 37.0 mph 73 % 0.0 in 207.0 W/m2 BKN
12:00 10.2 °F 5.3 °F 1015.5 in NW 42.6 mph 42.6 mph 72 % 0.0 in 202.0 W/m2 BKN
12:05 10.3 °F 5.4 °F 1015.5 in NW 35.2 mph 35.2 mph 72 % 0.0 in 200.0 W/m2 BKN
12:10 10.3 °F 5.5 °F 1015.1 in NW 48.1 mph 48.1 mph 72 % 0.0 in 176.0 W/m2 BKN
12:15 10.4 °F 5.3 °F 1015.1 in NW 37.0 mph 37.0 mph 71 % 0.0 in 169.0 W/m2 BKN
12:20 10.4 °F 5.4 °F 1014.8 in NW 40.2 mph 40.2 mph 71 % 0.0 in 195.0 W/m2 BKN
12:25 10.6 °F 5.6 °F 1014.8 in NW 44.4 mph 44.4 mph 71 % 0.0 in 202.0 W/m2 BKN
12:30 10.8 °F 5.5 °F 1015.1 in NW 46.3 mph 46.3 mph 70 % 0.0 in 183.0 W/m2 BKN
12:35 10.8 °F 5.6 °F 1014.8 in NW 42.6 mph 42.6 mph 70 % 0.0 in 155.0 W/m2 BKN
12:40 10.9 °F 5.6 °F 1014.4 in NW 53.7 mph 53.7 mph 70 % 0.0 in 148.0 W/m2 BKN
12:45 10.9 °F 5.6 °F 1014.4 in NW 51.8 mph 51.8 mph 70 % 0.0 in 207.0 W/m2 BKN
12:50 11.1 °F 5.8 °F 1014.1 in NW 46.3 mph 46.3 mph 70 % 0.0 in 234.0 W/m2 BKN
12:56 11.2 °F 5.9 °F 1014.1 in NW 51.5 mph 51.5 mph 70 % 0.0 in 223.0 W/m2 BKN
13:01 11.2 °F 5.9 °F 1014.4 in NW 56.3 mph 56.3 mph 70 % 0.0 in 241.0 W/m2 BKN
13:06 11.3 °F 6.1 °F 1014.4 in NW 42.6 mph 42.6 mph 70 % 0.0 in 373.0 W/m2 SCT
13:11 11.4 °F 5.9 °F 1014.1 in NW 51.8 mph 51.8 mph 69 % 0.0 in 218.0 W/m2 SCT
13:16 11.4 °F 5.9 °F 1014.4 in NNW 62.9 mph 62.9 mph 69 % 0.0 in 376.0 W/m2 SCT
13:21 11.3 °F 5.8 °F 1014.1 in NNW 61.1 mph 61.1 mph 69 % 0.0 in 190.0 W/m2 SCT
13:26 11.3 °F 6.0 °F 1014.1 in NW 51.8 mph 51.8 mph 70 % 0.0 in 200.0 W/m2 BKN
13:31 11.2 °F 5.9 °F 1014.1 in NW 51.8 mph 51.8 mph 70 % 0.0 in 186.0 W/m2 BKN
13:36 11.5 °F 6.2 °F 1013.8 in NNW 48.1 mph 48.1 mph 70 % 0.0 in 371.0 W/m2 SCT
13:46 12.0 °F 6.5 °F 1013.8 in NW 51.8 mph 51.8 mph 69 % 0.0 in 441.0 W/m2 CLR
13:51 12.0 °F 6.5 °F 1013.8 in NW 55.5 mph 55.5 mph 69 % 0.0 in 534.0 W/m2 CLR
13:56 11.9 °F 6.2 °F 1013.8 in NW 51.8 mph 51.8 mph 68 % 0.0 in 221.0 W/m2 CLR
14:01 11.8 °F 6.3 °F 1014.1 in NNW 56.3 mph 56.3 mph 69 % 0.0 in 274.0 W/m2 SCT
14:06 11.6 °F 6.1 °F 1014.1 in NNW 61.1 mph 61.1 mph 69 % 0.0 in 279.0 W/m2 SCT
14:11 11.6 °F 6.1 °F 1013.8 in NNW 53.7 mph 53.7 mph 69 % 0.0 in 257.0 W/m2 SCT
14:16 11.6 °F 6.1 °F 1013.8 in NNW 51.8 mph 51.8 mph 69 % 0.0 in 239.0 W/m2 SCT
14:21 11.7 °F 5.9 °F 1013.8 in NNW 59.2 mph 59.2 mph 68 % 0.0 in 308.0 W/m2 SCT
14:26 11.8 °F 6.1 °F 1013.4 in NNW 55.5 mph 55.5 mph 68 % 0.0 in 322.0 W/m2 SCT
14:31 11.9 °F 6.2 °F 1013.4 in NNW 59.2 mph 59.2 mph 68 % 0.0 in 362.0 W/m2 FEW
14:36 12.0 °F 6.3 °F 1013.4 in NNW 55.5 mph 55.5 mph 68 % 0.0 in 330.0 W/m2 CLR
14:41 12.0 °F 6.3 °F 1013.4 in NNW 50.0 mph 50.0 mph 68 % 0.0 in 323.0 W/m2 CLR
14:46 11.9 °F 6.2 °F 1013.4 in NNW 55.5 mph 55.5 mph 68 % 0.0 in 325.0 W/m2 FEW
14:51 12.0 °F 6.3 °F 1013.4 in NW 48.1 mph 48.1 mph 68 % 0.0 in 309.0 W/m2 FEW
14:56 12.1 °F 6.3 °F 1013.1 in NW 50.0 mph 50.0 mph 68 % 0.0 in 357.0 W/m2 CLR
15:01 12.1 °F 6.2 °F 1013.1 in NW 59.2 mph 59.2 mph 67 % 0.0 in 322.0 W/m2 CLR
15:06 12.2 °F 6.3 °F 1013.1 in NW 48.1 mph 48.1 mph 67 % 0.0 in 272.0 W/m2 CLR
15:11 12.1 °F 6.2 °F 1013.1 in NNW 57.4 mph 57.4 mph 67 % 0.0 in 185.0 W/m2 CLR
15:16 12.1 °F 6.3 °F 1013.1 in NNW 59.5 mph 59.5 mph 68 % 0.0 in 251.0 W/m2 FEW
15:21 12.1 °F 6.1 °F 1013.4 in NW 46.3 mph 46.3 mph 67 % 0.0 in 225.0 W/m2 FEW
15:26 12.1 °F 5.9 °F 1013.1 in NW 42.6 mph 42.6 mph 66 % 0.0 in 172.0 W/m2 FEW
15:31 12.2 °F 6.1 °F 1013.1 in NW 50.0 mph 50.0 mph 66 % 0.0 in 207.0 W/m2 FEW
15:36 12.2 °F 5.8 °F 1013.1 in NW 48.1 mph 48.1 mph 65 % 0.0 in 223.0 W/m2 FEW
15:41 12.2 °F 5.8 °F 1013.1 in NW 40.7 mph 40.7 mph 65 % 0.0 in 197.0 W/m2 FEW
15:46 12.2 °F 5.8 °F 1013.1 in NW 57.4 mph 57.4 mph 65 % 0.0 in 134.0 W/m2 FEW
15:51 12.1 °F 5.7 °F 1013.1 in NW 48.1 mph 48.1 mph 65 % 0.0 in 186.0 W/m2 FEW
15:56 12.1 °F 5.7 °F 1013.4 in NW 33.3 mph 33.3 mph 65 % 0.0 in 190.0 W/m2 FEW
16:01 12.0 °F 5.6 °F 1013.4 in NW 33.3 mph 33.3 mph 65 % 0.0 in 153.0 W/m2 CLR
16:06 12.0 °F 5.6 °F 1013.4 in NW 38.9 mph 38.9 mph 65 % 0.0 in 176.0 W/m2 CLR
16:11 12.1 °F 5.7 °F 1013.4 in NW 31.5 mph 31.5 mph 65 % 0.0 in 167.0 W/m2 CLR
16:16 12.0 °F 5.6 °F 1013.4 in NW 48.1 mph 48.1 mph 65 % 0.0 in 135.0 W/m2 CLR
16:21 11.9 °F 5.6 °F 1013.1 in NW 24.1 mph 24.1 mph 65 % 0.0 in 104.0 W/m2 CLR
16:26 11.8 °F 5.4 °F 1013.4 in NW 45.1 mph 45.1 mph 65 % 0.0 in 102.0 W/m2 CLR
16:31 11.8 °F 5.4 °F 1013.4 in NW 44.4 mph 44.4 mph 65 % 0.0 in 107.0 W/m2 CLR
16:36 11.7 °F 5.3 °F 1013.1 in NW 33.3 mph 33.3 mph 65 % 0.0 in 83.0 W/m2 CLR
16:41 11.6 °F 5.2 °F 1013.4 in NW 40.2 mph 40.2 mph 65 % 0.0 in 86.0 W/m2 CLR
16:46 11.6 °F 5.2 °F 1013.4 in NW 35.4 mph 35.4 mph 65 % 0.0 in 77.0 W/m2 CLR
16:51 11.5 °F 5.4 °F 1013.4 in NW 44.4 mph 44.4 mph 66 % 0.0 in 70.0 W/m2 CLR
16:56 11.4 °F 5.3 °F 1013.4 in NW 33.3 mph 33.3 mph 66 % 0.0 in 60.0 W/m2 CLR
17:01 11.3 °F 5.2 °F 1013.4 in NW 43.4 mph 43.4 mph 66 % 0.0 in 42.0 W/m2 CLR
17:06 11.2 °F 5.1 °F 1013.4 in NW 40.7 mph 40.7 mph 66 % 0.0 in 28.0 W/m2 OVC
17:11 11.1 °F 4.9 °F 1013.4 in NW 55.5 mph 55.5 mph 66 % 0.0 in 21.0 W/m2 OVC
17:16 10.9 °F 5.1 °F 1013.8 in NW 42.6 mph 42.6 mph 67 % 0.0 in 19.0 W/m2 OVC
17:21 10.8 °F 4.9 °F 1013.8 in NW 38.9 mph 38.9 mph 67 % 0.0 in 21.0 W/m2 OVC
17:26 10.8 °F 4.9 °F 1013.8 in NW 49.9 mph 49.9 mph 67 % 0.0 in 18.0 W/m2 OVC
17:31 10.7 °F 5.1 °F 1013.8 in NW 42.6 mph 42.6 mph 68 % 0.0 in 12.0 W/m2 OVC
17:36 10.6 °F 4.9 °F 1013.8 in NW 32.2 mph 32.2 mph 68 % 0.0 in 9.0 W/m2 OVC
17:41 10.5 °F 4.8 °F 1013.8 in NW 42.6 mph 42.6 mph 68 % 0.0 in 7.0 W/m2 OVC
17:46 10.5 °F 4.8 °F 1013.8 in NW 59.2 mph 59.2 mph 68 % 0.0 in 0.0 W/m2
17:51 10.4 °F 4.8 °F 1014.1 in NW 46.3 mph 46.3 mph 68 % 0.0 in 0.0 W/m2 OVC
17:56 10.4 °F 4.8 °F 1014.1 in NW 53.7 mph 53.7 mph 68 % 0.0 in 0.0 W/m2
18:01 10.3 °F 4.9 °F 1014.4 in NW 42.6 mph 42.6 mph 69 % 0.0 in 0.0 W/m2 CLR
18:06 10.2 °F 4.8 °F 1014.4 in NW 37.0 mph 37.0 mph 69 % 0.0 in 0.0 W/m2 CLR
18:12 10.1 °F 4.9 °F 1014.8 in NW 42.6 mph 42.6 mph 70 % 0.0 in 0.0 W/m2 CLR
18:17 10.1 °F 4.9 °F 1014.8 in NW 55.5 mph 55.5 mph 70 % 0.0 in 0.0 W/m2 CLR
18:22 10.0 °F 5.0 °F 1014.8 in NW 37.0 mph 37.0 mph 71 % 0.0 in 0.0 W/m2 CLR
18:27 9.9 °F 4.9 °F 1015.1 in NNW 38.6 mph 38.6 mph 71 % 0.0 in 0.0 W/m2 CLR
18:32 9.9 °F 4.9 °F 1014.8 in NW 55.5 mph 55.5 mph 71 % 0.0 in 0.0 W/m2 CLR
18:37 9.9 °F 4.9 °F 1014.8 in NW 46.3 mph 46.3 mph 71 % 0.0 in 0.0 W/m2 CLR
18:42 9.8 °F 4.8 °F 1014.4 in NW 51.5 mph 51.5 mph 71 % 0.0 in 0.0 W/m2 CLR
18:47 9.8 °F 4.9 °F 1014.4 in NW 46.3 mph 46.3 mph 72 % 0.0 in 0.0 W/m2 CLR
18:52 9.8 °F 4.9 °F 1014.4 in NW 49.9 mph 49.9 mph 72 % 0.0 in 0.0 W/m2 CLR
18:57 9.8 °F 4.8 °F 1014.4 in NW 53.7 mph 53.7 mph 71 % 0.0 in 0.0 W/m2
19:02 9.7 °F 4.7 °F 1014.8 in NW 53.1 mph 53.1 mph 71 % 0.0 in 0.0 W/m2 CLR
19:07 9.7 °F 4.7 °F 1014.4 in NW 44.4 mph 44.4 mph 71 % 0.0 in 0.0 W/m2 CLR
19:12 9.6 °F 4.8 °F 1014.8 in NW 40.7 mph 40.7 mph 72 % 0.0 in 0.0 W/m2 CLR
19:17 9.6 °F 4.9 °F 1014.8 in NW 38.9 mph 38.9 mph 73 % 0.0 in 0.0 W/m2 CLR
19:22 9.5 °F 4.9 °F 1014.8 in NW 55.5 mph 55.5 mph 73 % 0.0 in 0.0 W/m2 CLR
19:27 9.5 °F 4.9 °F 1015.1 in NW 38.9 mph 38.9 mph 73 % 0.0 in 0.0 W/m2 CLR
19:32 9.4 °F 4.8 °F 1015.1 in NW 37.0 mph 37.0 mph 73 % 0.0 in 0.0 W/m2 CLR
19:37 9.3 °F 4.7 °F 1015.1 in NW 42.6 mph 42.6 mph 73 % 0.0 in 0.0 W/m2 CLR
19:42 9.3 °F 4.7 °F 1015.1 in NW 53.7 mph 53.7 mph 73 % 0.0 in 0.0 W/m2 CLR
19:47 9.2 °F 4.8 °F 1015.1 in NW 37.0 mph 37.0 mph 74 % 0.0 in 0.0 W/m2 CLR
19:52 9.2 °F 4.8 °F 1015.1 in NW 38.9 mph 38.9 mph 74 % 0.0 in 0.0 W/m2 CLR
19:57 9.1 °F 4.7 °F 1015.1 in NW 46.3 mph 46.3 mph 74 % 0.0 in 0.0 W/m2 CLR
20:02 9.1 °F 4.7 °F 1015.5 in NW 41.8 mph 41.8 mph 74 % 0.0 in 0.0 W/m2 CLR
20:07 9.1 °F 4.8 °F 1015.5 in NW 46.3 mph 46.3 mph 75 % 0.0 in 0.0 W/m2 CLR
20:12 8.9 °F 4.7 °F 1015.5 in NW 42.6 mph 42.6 mph 75 % 0.0 in 0.0 W/m2 CLR
20:17 8.8 °F 4.7 °F 1015.5 in NW 33.3 mph 33.3 mph 75 % 0.0 in 0.0 W/m2 CLR
20:22 8.7 °F 4.7 °F 1015.5 in NW 35.2 mph 35.2 mph 76 % 0.0 in 0.0 W/m2 CLR
20:27 8.7 °F 4.7 °F 1015.1 in NW 33.3 mph 33.3 mph 76 % 0.0 in 0.0 W/m2 CLR
20:32 8.7 °F 4.7 °F 1015.1 in NW 30.6 mph 30.6 mph 76 % 0.0 in 0.0 W/m2 CLR
20:37 8.6 °F 4.6 °F 1015.1 in NW 35.2 mph 35.2 mph 76 % 0.0 in 0.0 W/m2 CLR
20:42 8.5 °F 4.7 °F 1015.1 in NW 37.0 mph 37.0 mph 77 % 0.0 in 0.0 W/m2 CLR
20:47 8.5 °F 4.7 °F 1015.1 in NW 42.6 mph 42.6 mph 77 % 0.0 in 0.0 W/m2 CLR
20:52 8.4 °F 4.8 °F 1015.1 in NW 33.3 mph 33.3 mph 78 % 0.0 in 0.0 W/m2 CLR
20:57 8.4 °F 4.8 °F 1015.1 in NW 27.8 mph 27.8 mph 78 % 0.0 in 0.0 W/m2 CLR
21:02 8.3 °F 4.7 °F 1015.1 in NW 31.5 mph 32.2 mph 78 % 0.0 in 0.0 W/m2 CLR
21:07 8.3 °F 4.9 °F 1015.5 in NW 33.8 mph 33.8 mph 79 % 0.0 in 0.0 W/m2 CLR
21:12 8.3 °F 4.8 °F 1015.5 in NW 40.7 mph 40.7 mph 79 % 0.0 in 0.0 W/m2 CLR
21:17 8.3 °F 4.8 °F 1015.8 in NW 31.5 mph 31.5 mph 79 % 0.0 in 0.0 W/m2 CLR
21:22 8.3 °F 4.8 °F 1015.8 in NW 44.4 mph 44.4 mph 79 % 0.0 in 0.0 W/m2 CLR
21:27 8.3 °F 4.8 °F 1015.8 in NW 42.6 mph 42.6 mph 79 % 0.0 in 0.0 W/m2 CLR
21:32 8.3 °F 4.8 °F 1015.8 in NW 38.9 mph 38.9 mph 79 % 0.0 in 0.0 W/m2 CLR
21:37 8.3 °F 4.9 °F 1015.5 in NW 40.7 mph 40.7 mph 79 % 0.0 in 0.0 W/m2 CLR
21:42 8.3 °F 4.9 °F 1015.5 in NW 42.6 mph 42.6 mph 79 % 0.0 in 0.0 W/m2 CLR
21:47 8.2 °F 4.8 °F 1015.5 in NW 29.6 mph 29.6 mph 79 % 0.0 in 0.0 W/m2 CLR
21:52 8.2 °F 4.9 °F 1015.1 in NW 37.0 mph 37.0 mph 80 % 0.0 in 0.0 W/m2 CLR
21:57 8.1 °F 4.8 °F 1015.5 in NW 42.6 mph 42.6 mph 80 % 0.0 in 0.0 W/m2 CLR
22:02 8.1 °F 5.0 °F 1015.5 in NW 33.3 mph 33.3 mph 81 % 0.0 in 0.0 W/m2 CLR
22:07 8.1 °F 5.0 °F 1015.5 in NW 40.7 mph 40.7 mph 81 % 0.0 in 0.0 W/m2 CLR
22:12 8.0 °F 4.9 °F 1015.5 in NW 42.6 mph 42.6 mph 81 % 0.0 in 0.0 W/m2 CLR
22:17 8.0 °F 4.9 °F 1015.5 in NW 38.9 mph 38.9 mph 81 % 0.0 in 0.0 W/m2 CLR
22:22 8.0 °F 4.8 °F 1015.5 in NW 27.8 mph 27.8 mph 80 % 0.0 in 0.0 W/m2 CLR
22:27 8.0 °F 4.9 °F 1015.5 in NW 40.7 mph 40.7 mph 81 % 0.0 in 0.0 W/m2 CLR
22:32 8.0 °F 4.8 °F 1015.5 in NW 33.3 mph 33.3 mph 80 % 0.0 in 0.0 W/m2 CLR
22:37 8.0 °F 4.9 °F 1015.8 in NW 40.7 mph 40.7 mph 81 % 0.0 in 0.0 W/m2 CLR
22:42 7.9 °F 4.9 °F 1015.8 in NW 37.0 mph 37.0 mph 81 % 0.0 in 0.0 W/m2 CLR
22:47 7.9 °F 4.9 °F 1015.5 in NW 42.6 mph 42.6 mph 81 % 0.0 in 0.0 W/m2 CLR
22:52 8.0 °F 4.8 °F 1015.5 in NW 35.4 mph 35.4 mph 80 % 0.0 in 0.0 W/m2 CLR
22:57 7.9 °F 4.8 °F 1015.8 in NW 25.7 mph 25.7 mph 81 % 0.0 in 0.0 W/m2 CLR
23:02 7.9 °F 4.8 °F 1015.8 in NW 35.2 mph 35.2 mph 81 % 0.0 in 0.0 W/m2 CLR
23:07 7.9 °F 4.8 °F 1015.8 in NW 37.0 mph 37.0 mph 81 % 0.0 in 0.0 W/m2 CLR
23:12 7.8 °F 4.8 °F 1015.8 in NW 31.5 mph 31.5 mph 81 % 0.0 in 0.0 W/m2 CLR
23:17 7.8 °F 4.8 °F 1015.8 in NW 31.5 mph 31.5 mph 81 % 0.0 in 0.0 W/m2 CLR
23:22 7.9 °F 4.8 °F 1015.8 in NW 35.2 mph 35.2 mph 81 % 0.0 in 0.0 W/m2 CLR
23:27 7.8 °F 4.7 °F 1015.8 in NW 35.2 mph 35.2 mph 81 % 0.0 in 0.0 W/m2 CLR
23:32 7.8 °F 4.8 °F 1015.8 in NW 38.9 mph 38.9 mph 81 % 0.0 in 0.0 W/m2 CLR
23:37 7.8 °F 4.8 °F 1015.8 in NW 37.0 mph 37.0 mph 81 % 0.0 in 0.0 W/m2 CLR
23:42 7.8 °F 4.8 °F 1015.8 in NW 31.5 mph 31.5 mph 81 % 0.0 in 0.0 W/m2 CLR
23:47 7.7 °F 4.7 °F 1016.1 in NW 31.5 mph 31.5 mph 81 % 0.0 in 0.0 W/m2 CLR
23:52 7.8 °F 4.7 °F 1016.1 in NW 35.2 mph 35.2 mph 81 % 0.0 in 0.0 W/m2 CLR
23:57 7.8 °F 4.7 °F 1016.1 in NW 31.5 mph 31.5 mph 81 % 0.0 in 0.0 W/m2 CLR
Lo Temps de Massalio
Compliments of Weather Underground - 1.25 mb